Livingston, Iowa
Current Conditions -  °F | °C
As of 12:10 PM on Sunday 25 Jan 2015 (Local Time) from KTVK Reporting Station
Light Snow Light Snow  
Wind Chill: 19°   Ceiling: 900
Heat Index: 32°   Visibility: 10mi
Dew Point: 32°   Wind: 22mph
Humidity: 100%   Direction: 10°N
Pressure: 29.81"   Gusts: 28mph
Location:  40.6341°N, 92.9239°W
Report Text: KTVK 251810Z AUTO 01019G24KT 10SM -SN SCT001 OVC009 00/00 A2981 RMK AO2
Loading
Personal Weather Stations






























Interactive Weather Map New forecast layout! Learn more

10-Day Weather Forecast

Advertisements
Track Severe Weather on mobile